Terminal Aerodrome Forecast
Issued by NWS Norman, OK

Home | Current Version | Previous Version | Text Only | Print | Product List | Glossary On
Versions: 1 2 3 4 5 6 7 8 9 10 11 12 13 14 15 16 17 18 19 20 21 22 23 24 25 26 27 28 29 30 31 32 33 34
000
FTUS44 KOUN 231736
TAFOKC
TAF
KOKC 231736Z 2318/2418 08005KT 2SM BR OVC004
      TEMPO 2318/2320 1SM TSRA SCT004 OVC010CB
     FM232000 08005KT 3SM -RA BR OVC005
     FM240000 12004KT 1/2SM -DZ FG OVC003
     FM241300 18010KT 1SM TSRA OVC006CB=

USA.gov is the U.S. government's official web portal to all federal, state and local government web resources and services.